sensor_id;sensor_type;location;lat;lon;timestamp;P1;durP1;ratioP1;P2;durP2;ratioP2
422;SDS011;198;48.752;9.180;2022-08-04T00:02:08;1.87;;;1.80;;
422;SDS011;198;48.752;9.180;2022-08-04T00:04:48;5.30;;;1.97;;
422;SDS011;198;48.752;9.180;2022-08-04T00:07:25;1.50;;;1.50;;
422;SDS011;198;48.752;9.180;2022-08-04T00:10:20;1.90;;;1.80;;
422;SDS011;198;48.752;9.180;2022-08-04T00:12:47;3.67;;;1.67;;
422;SDS011;198;48.752;9.180;2022-08-04T00:15:15;2.13;;;1.97;;
422;SDS011;198;48.752;9.180;2022-08-04T00:17:43;3.13;;;1.90;;
422;SDS011;198;48.752;9.180;2022-08-04T00:20:11;4.10;;;1.87;;
422;SDS011;198;48.752;9.180;2022-08-04T00:22:44;2.03;;;1.70;;
422;SDS011;198;48.752;9.180;2022-08-04T00:25:11;1.73;;;1.40;;
422;SDS011;198;48.752;9.180;2022-08-04T00:27:37;2.17;;;1.80;;
422;SDS011;198;48.752;9.180;2022-08-04T00:30:03;1.50;;;1.47;;
422;SDS011;198;48.752;9.180;2022-08-04T00:32:30;2.10;;;1.53;;
422;SDS011;198;48.752;9.180;2022-08-04T00:34:56;1.57;;;1.50;;
422;SDS011;198;48.752;9.180;2022-08-04T00:37:23;2.50;;;1.47;;
422;SDS011;198;48.752;9.180;2022-08-04T00:39:50;9.53;;;1.80;;
422;SDS011;198;48.752;9.180;2022-08-04T00:42:33;1.67;;;1.60;;
422;SDS011;198;48.752;9.180;2022-08-04T00:45:29;2.70;;;1.70;;
422;SDS011;198;48.752;9.180;2022-08-04T00:48:46;1.53;;;1.47;;
422;SDS011;198;48.752;9.180;2022-08-04T00:57:02;2.47;;;1.80;;
422;SDS011;198;48.752;9.180;2022-08-04T01:02:37;2.27;;;1.90;;
422;SDS011;198;48.752;9.180;2022-08-04T01:10:14;1.97;;;1.90;;
422;SDS011;198;48.752;9.180;2022-08-04T01:12:51;2.10;;;1.90;;
422;SDS011;198;48.752;9.180;2022-08-04T01:18:29;2.13;;;1.80;;
422;SDS011;198;48.752;9.180;2022-08-04T01:29:30;2.57;;;2.20;;
422;SDS011;198;48.752;9.180;2022-08-04T01:32:33;4.20;;;2.30;;
422;SDS011;198;48.752;9.180;2022-08-04T01:35:04;6.07;;;2.10;;
422;SDS011;198;48.752;9.180;2022-08-04T01:40:15;2.30;;;2.07;;
422;SDS011;198;48.752;9.180;2022-08-04T01:42:42;3.20;;;1.87;;
422;SDS011;198;48.752;9.180;2022-08-04T01:45:10;7.30;;;2.30;;
422;SDS011;198;48.752;9.180;2022-08-04T01:47:37;2.17;;;1.77;;
422;SDS011;198;48.752;9.180;2022-08-04T01:50:11;3.30;;;1.70;;
422;SDS011;198;48.752;9.180;2022-08-04T01:52:39;2.17;;;1.80;;
422;SDS011;198;48.752;9.180;2022-08-04T01:55:07;4.87;;;2.30;;
422;SDS011;198;48.752;9.180;2022-08-04T01:57:35;8.57;;;2.10;;
422;SDS011;198;48.752;9.180;2022-08-04T02:00:09;8.10;;;2.00;;
422;SDS011;198;48.752;9.180;2022-08-04T02:02:35;2.30;;;1.93;;
422;SDS011;198;48.752;9.180;2022-08-04T02:05:01;12.53;;;2.33;;
422;SDS011;198;48.752;9.180;2022-08-04T02:07:29;2.97;;;2.20;;
422;SDS011;198;48.752;9.180;2022-08-04T02:10:20;2.07;;;1.90;;
422;SDS011;198;48.752;9.180;2022-08-04T02:12:54;2.80;;;1.63;;
422;SDS011;198;48.752;9.180;2022-08-04T02:18:21;7.80;;;2.00;;
422;SDS011;198;48.752;9.180;2022-08-04T02:21:06;11.30;;;1.90;;
422;SDS011;198;48.752;9.180;2022-08-04T02:23:38;3.50;;;1.90;;
422;SDS011;198;48.752;9.180;2022-08-04T02:26:08;3.83;;;1.90;;
422;SDS011;198;48.752;9.180;2022-08-04T02:36:49;2.70;;;1.90;;
422;SDS011;198;48.752;9.180;2022-08-04T02:39:16;3.63;;;1.63;;
422;SDS011;198;48.752;9.180;2022-08-04T02:41:45;2.70;;;2.00;;
422;SDS011;198;48.752;9.180;2022-08-04T02:44:11;1.87;;;1.77;;
422;SDS011;198;48.752;9.180;2022-08-04T02:46:38;1.83;;;1.73;;
422;SDS011;198;48.752;9.180;2022-08-04T02:49:08;11.40;;;2.27;;
422;SDS011;198;48.752;9.180;2022-08-04T02:51:35;2.23;;;2.10;;
422;SDS011;198;48.752;9.180;2022-08-04T02:54:05;3.10;;;2.33;;
422;SDS011;198;48.752;9.180;2022-08-04T02:56:32;1.63;;;1.53;;
422;SDS011;198;48.752;9.180;2022-08-04T02:59:01;3.43;;;2.00;;
422;SDS011;198;48.752;9.180;2022-08-04T03:01:27;2.80;;;2.37;;
422;SDS011;198;48.752;9.180;2022-08-04T03:04:03;2.37;;;1.70;;
422;SDS011;198;48.752;9.180;2022-08-04T03:27:04;2.17;;;2.00;;
422;SDS011;198;48.752;9.180;2022-08-04T03:32:16;2.37;;;2.03;;
422;SDS011;198;48.752;9.180;2022-08-04T03:35:23;2.77;;;2.13;;
422;SDS011;198;48.752;9.180;2022-08-04T03:41:03;2.33;;;2.00;;
422;SDS011;198;48.752;9.180;2022-08-04T03:49:36;1.87;;;1.77;;
422;SDS011;198;48.752;9.180;2022-08-04T03:52:23;3.07;;;1.90;;
422;SDS011;198;48.752;9.180;2022-08-04T04:06:35;2.20;;;2.00;;
422;SDS011;198;48.752;9.180;2022-08-04T04:21:05;11.10;;;2.40;;
422;SDS011;198;48.752;9.180;2022-08-04T04:23:42;6.93;;;2.60;;
422;SDS011;198;48.752;9.180;2022-08-04T04:29:56;2.50;;;1.90;;
422;SDS011;198;48.752;9.180;2022-08-04T04:35:30;2.40;;;2.27;;
422;SDS011;198;48.752;9.180;2022-08-04T04:38:11;4.50;;;1.83;;
422;SDS011;198;48.752;9.180;2022-08-04T04:46:36;1.57;;;1.50;;
422;SDS011;198;48.752;9.180;2022-08-04T04:49:28;1.60;;;1.50;;
422;SDS011;198;48.752;9.180;2022-08-04T04:54:37;3.03;;;1.50;;
422;SDS011;198;48.752;9.180;2022-08-04T04:57:12;2.23;;;1.60;;
422;SDS011;198;48.752;9.180;2022-08-04T04:59:44;4.10;;;1.57;;
422;SDS011;198;48.752;9.180;2022-08-04T05:08:12;2.70;;;2.00;;
422;SDS011;198;48.752;9.180;2022-08-04T05:15:59;2.37;;;2.00;;
422;SDS011;198;48.752;9.180;2022-08-04T05:18:31;2.10;;;1.70;;
422;SDS011;198;48.752;9.180;2022-08-04T05:21:07;10.03;;;1.90;;
422;SDS011;198;48.752;9.180;2022-08-04T05:23:35;2.70;;;2.00;;
422;SDS011;198;48.752;9.180;2022-08-04T05:26:09;5.40;;;2.00;;
422;SDS011;198;48.752;9.180;2022-08-04T05:28:53;1.43;;;1.40;;
422;SDS011;198;48.752;9.180;2022-08-04T05:31:23;4.60;;;2.40;;
422;SDS011;198;48.752;9.180;2022-08-04T05:33:56;2.67;;;1.90;;
422;SDS011;198;48.752;9.180;2022-08-04T05:36:36;5.77;;;1.87;;
422;SDS011;198;48.752;9.180;2022-08-04T05:39:14;3.90;;;2.80;;
422;SDS011;198;48.752;9.180;2022-08-04T05:41:43;2.53;;;2.17;;
422;SDS011;198;48.752;9.180;2022-08-04T05:44:10;4.50;;;2.00;;
422;SDS011;198;48.752;9.180;2022-08-04T05:46:36;3.53;;;2.30;;
422;SDS011;198;48.752;9.180;2022-08-04T05:49:02;5.63;;;2.30;;
422;SDS011;198;48.752;9.180;2022-08-04T05:51:29;2.40;;;1.90;;
422;SDS011;198;48.752;9.180;2022-08-04T05:53:56;3.67;;;2.30;;
422;SDS011;198;48.752;9.180;2022-08-04T05:56:23;4.60;;;2.50;;
422;SDS011;198;48.752;9.180;2022-08-04T05:58:49;2.97;;;1.90;;
422;SDS011;198;48.752;9.180;2022-08-04T06:01:17;2.53;;;2.27;;
422;SDS011;198;48.752;9.180;2022-08-04T06:03:44;3.60;;;1.90;;
422;SDS011;198;48.752;9.180;2022-08-04T06:06:12;1.90;;;1.87;;
422;SDS011;198;48.752;9.180;2022-08-04T06:08:39;3.40;;;1.80;;
422;SDS011;198;48.752;9.180;2022-08-04T06:11:05;2.57;;;1.80;;
422;SDS011;198;48.752;9.180;2022-08-04T06:13:39;2.70;;;2.03;;
422;SDS011;198;48.752;9.180;2022-08-04T06:16:07;7.13;;;2.13;;
422;SDS011;198;48.752;9.180;2022-08-04T06:18:34;2.40;;;1.90;;
422;SDS011;198;48.752;9.180;2022-08-04T06:21:03;4.77;;;2.20;;
422;SDS011;198;48.752;9.180;2022-08-04T06:23:30;7.27;;;2.17;;
422;SDS011;198;48.752;9.180;2022-08-04T06:25:59;8.50;;;1.70;;
422;SDS011;198;48.752;9.180;2022-08-04T06:28:26;4.40;;;2.23;;
422;SDS011;198;48.752;9.180;2022-08-04T06:30:53;11.70;;;2.47;;
422;SDS011;198;48.752;9.180;2022-08-04T06:33:26;3.83;;;2.60;;
422;SDS011;198;48.752;9.180;2022-08-04T06:35:58;5.30;;;2.30;;
422;SDS011;198;48.752;9.180;2022-08-04T06:38:26;7.83;;;2.27;;
422;SDS011;198;48.752;9.180;2022-08-04T06:40:53;14.00;;;3.00;;
422;SDS011;198;48.752;9.180;2022-08-04T06:43:23;10.00;;;2.27;;
422;SDS011;198;48.752;9.180;2022-08-04T06:45:53;4.93;;;2.47;;
422;SDS011;198;48.752;9.180;2022-08-04T06:48:20;16.73;;;2.53;;
422;SDS011;198;48.752;9.180;2022-08-04T06:50:47;5.57;;;2.50;;
422;SDS011;198;48.752;9.180;2022-08-04T06:53:14;10.40;;;2.97;;
422;SDS011;198;48.752;9.180;2022-08-04T06:55:41;41.30;;;3.20;;
422;SDS011;198;48.752;9.180;2022-08-04T06:58:08;5.50;;;2.57;;
422;SDS011;198;48.752;9.180;2022-08-04T07:00:35;4.30;;;3.00;;
422;SDS011;198;48.752;9.180;2022-08-04T07:03:01;4.60;;;2.23;;
422;SDS011;198;48.752;9.180;2022-08-04T07:05:27;9.00;;;2.43;;
422;SDS011;198;48.752;9.180;2022-08-04T07:07:54;3.73;;;2.00;;
422;SDS011;198;48.752;9.180;2022-08-04T07:10:20;10.10;;;2.97;;
422;SDS011;198;48.752;9.180;2022-08-04T07:12:47;14.47;;;2.77;;
422;SDS011;198;48.752;9.180;2022-08-04T07:15:14;13.43;;;2.90;;
422;SDS011;198;48.752;9.180;2022-08-04T07:17:42;8.83;;;3.00;;
422;SDS011;198;48.752;9.180;2022-08-04T07:20:08;9.70;;;2.70;;
422;SDS011;198;48.752;9.180;2022-08-04T07:22:34;11.90;;;3.10;;
422;SDS011;198;48.752;9.180;2022-08-04T07:25:00;14.97;;;2.53;;
422;SDS011;198;48.752;9.180;2022-08-04T07:27:27;7.33;;;2.83;;
422;SDS011;198;48.752;9.180;2022-08-04T07:29:52;6.43;;;2.37;;
422;SDS011;198;48.752;9.180;2022-08-04T07:32:20;5.37;;;1.90;;
422;SDS011;198;48.752;9.180;2022-08-04T07:34:49;5.50;;;2.47;;
422;SDS011;198;48.752;9.180;2022-08-04T07:37:16;6.77;;;2.53;;
422;SDS011;198;48.752;9.180;2022-08-04T07:39:42;3.30;;;2.10;;
422;SDS011;198;48.752;9.180;2022-08-04T07:42:08;3.80;;;2.17;;
422;SDS011;198;48.752;9.180;2022-08-04T07:44:34;9.83;;;2.83;;
422;SDS011;198;48.752;9.180;2022-08-04T07:47:00;11.17;;;3.70;;
422;SDS011;198;48.752;9.180;2022-08-04T07:49:27;5.70;;;2.57;;
422;SDS011;198;48.752;9.180;2022-08-04T07:51:53;5.07;;;2.27;;
422;SDS011;198;48.752;9.180;2022-08-04T07:54:19;13.80;;;2.47;;
422;SDS011;198;48.752;9.180;2022-08-04T07:56:46;10.73;;;2.50;;
422;SDS011;198;48.752;9.180;2022-08-04T07:59:13;10.70;;;2.70;;
422;SDS011;198;48.752;9.180;2022-08-04T08:01:40;13.80;;;2.50;;
422;SDS011;198;48.752;9.180;2022-08-04T08:04:06;13.33;;;2.30;;
422;SDS011;198;48.752;9.180;2022-08-04T08:06:34;8.27;;;2.10;;
422;SDS011;198;48.752;9.180;2022-08-04T08:09:06;5.03;;;2.47;;
422;SDS011;198;48.752;9.180;2022-08-04T08:11:32;8.13;;;3.70;;
422;SDS011;198;48.752;9.180;2022-08-04T08:13:58;8.43;;;2.87;;
422;SDS011;198;48.752;9.180;2022-08-04T08:16:25;16.73;;;3.87;;
422;SDS011;198;48.752;9.180;2022-08-04T08:18:52;9.30;;;2.43;;
422;SDS011;198;48.752;9.180;2022-08-04T08:21:19;6.53;;;2.00;;
422;SDS011;198;48.752;9.180;2022-08-04T08:23:45;4.73;;;2.40;;
422;SDS011;198;48.752;9.180;2022-08-04T08:26:11;11.43;;;2.57;;
422;SDS011;198;48.752;9.180;2022-08-04T08:28:37;7.73;;;2.60;;
422;SDS011;198;48.752;9.180;2022-08-04T08:31:03;10.87;;;2.40;;
422;SDS011;198;48.752;9.180;2022-08-04T08:33:29;3.90;;;2.00;;
422;SDS011;198;48.752;9.180;2022-08-04T08:36:02;10.23;;;3.50;;
422;SDS011;198;48.752;9.180;2022-08-04T08:38:45;8.93;;;2.70;;
422;SDS011;198;48.752;9.180;2022-08-04T08:41:22;10.20;;;2.23;;
422;SDS011;198;48.752;9.180;2022-08-04T08:44:20;8.63;;;2.73;;
422;SDS011;198;48.752;9.180;2022-08-04T08:47:08;7.50;;;2.60;;
422;SDS011;198;48.752;9.180;2022-08-04T08:58:16;2.43;;;2.13;;
422;SDS011;198;48.752;9.180;2022-08-04T09:09:48;4.53;;;2.67;;
422;SDS011;198;48.752;9.180;2022-08-04T09:12:32;3.60;;;2.63;;
422;SDS011;198;48.752;9.180;2022-08-04T09:15:35;9.50;;;2.50;;
422;SDS011;198;48.752;9.180;2022-08-04T09:19:01;7.30;;;2.43;;
422;SDS011;198;48.752;9.180;2022-08-04T09:21:34;4.13;;;2.47;;
422;SDS011;198;48.752;9.180;2022-08-04T09:24:21;5.50;;;2.27;;
422;SDS011;198;48.752;9.180;2022-08-04T09:27:00;6.43;;;2.20;;
422;SDS011;198;48.752;9.180;2022-08-04T09:32:22;2.07;;;1.87;;
422;SDS011;198;48.752;9.180;2022-08-04T09:40:58;2.50;;;2.30;;
422;SDS011;198;48.752;9.180;2022-08-04T09:43:35;4.33;;;2.70;;
422;SDS011;198;48.752;9.180;2022-08-04T09:46:24;8.80;;;2.17;;
422;SDS011;198;48.752;9.180;2022-08-04T09:48:57;3.57;;;2.20;;
422;SDS011;198;48.752;9.180;2022-08-04T09:54:15;3.10;;;2.00;;
422;SDS011;198;48.752;9.180;2022-08-04T10:02:10;4.00;;;1.90;;
422;SDS011;198;48.752;9.180;2022-08-04T10:04:39;4.50;;;2.33;;
422;SDS011;198;48.752;9.180;2022-08-04T10:10:09;4.80;;;1.73;;
422;SDS011;198;48.752;9.180;2022-08-04T10:15:42;3.27;;;1.50;;
422;SDS011;198;48.752;9.180;2022-08-04T10:18:34;7.85;;;2.17;;
422;SDS011;198;48.752;9.180;2022-08-04T10:21:35;1.70;;;1.40;;
422;SDS011;198;48.752;9.180;2022-08-04T10:26:46;2.83;;;1.52;;
422;SDS011;198;48.752;9.180;2022-08-04T10:29:36;1.63;;;1.52;;
422;SDS011;198;48.752;9.180;2022-08-04T10:32:19;1.52;;;1.42;;
422;SDS011;198;48.752;9.180;2022-08-04T10:37:39;2.50;;;1.20;;
422;SDS011;198;48.752;9.180;2022-08-04T10:40:11;1.80;;;1.70;;
422;SDS011;198;48.752;9.180;2022-08-04T10:43:17;5.07;;;1.30;;
422;SDS011;198;48.752;9.180;2022-08-04T10:48:48;1.35;;;1.25;;
422;SDS011;198;48.752;9.180;2022-08-04T10:51:27;2.78;;;1.73;;
422;SDS011;198;48.752;9.180;2022-08-04T10:54:06;1.95;;;1.85;;
422;SDS011;198;48.752;9.180;2022-08-04T10:56:39;1.92;;;1.65;;
422;SDS011;198;48.752;9.180;2022-08-04T10:59:32;1.60;;;1.50;;
422;SDS011;198;48.752;9.180;2022-08-04T11:01:59;2.85;;;1.27;;
422;SDS011;198;48.752;9.180;2022-08-04T11:04:46;2.78;;;1.55;;
422;SDS011;198;48.752;9.180;2022-08-04T11:07:14;2.03;;;1.83;;
422;SDS011;198;48.752;9.180;2022-08-04T11:09:41;3.58;;;1.58;;
422;SDS011;198;48.752;9.180;2022-08-04T11:12:09;3.00;;;1.27;;
422;SDS011;198;48.752;9.180;2022-08-04T11:15:28;1.55;;;1.50;;
422;SDS011;198;48.752;9.180;2022-08-04T11:17:55;3.53;;;1.33;;
422;SDS011;198;48.752;9.180;2022-08-04T11:20:46;1.08;;;0.98;;
422;SDS011;198;48.752;9.180;2022-08-04T11:23:15;1.30;;;1.20;;
422;SDS011;198;48.752;9.180;2022-08-04T11:26:17;1.50;;;1.40;;
422;SDS011;198;48.752;9.180;2022-08-04T11:31:30;1.42;;;1.33;;
422;SDS011;198;48.752;9.180;2022-08-04T11:34:04;2.67;;;1.70;;
422;SDS011;198;48.752;9.180;2022-08-04T11:39:21;2.83;;;1.40;;
422;SDS011;198;48.752;9.180;2022-08-04T11:42:04;1.30;;;1.20;;
422;SDS011;198;48.752;9.180;2022-08-04T11:44:40;2.03;;;1.60;;
422;SDS011;198;48.752;9.180;2022-08-04T11:47:35;1.70;;;1.60;;
422;SDS011;198;48.752;9.180;2022-08-04T11:50:26;6.53;;;1.45;;
422;SDS011;198;48.752;9.180;2022-08-04T11:52:58;2.05;;;1.40;;
422;SDS011;198;48.752;9.180;2022-08-04T11:55:24;1.70;;;1.60;;
422;SDS011;198;48.752;9.180;2022-08-04T11:57:52;1.85;;;1.75;;
422;SDS011;198;48.752;9.180;2022-08-04T12:00:18;1.15;;;1.05;;
422;SDS011;198;48.752;9.180;2022-08-04T12:02:49;1.73;;;1.40;;
422;SDS011;198;48.752;9.180;2022-08-04T12:05:30;1.58;;;1.48;;
422;SDS011;198;48.752;9.180;2022-08-04T12:08:02;1.20;;;1.10;;
422;SDS011;198;48.752;9.180;2022-08-04T12:16:41;3.33;;;1.38;;
422;SDS011;198;48.752;9.180;2022-08-04T12:19:20;2.50;;;1.58;;
422;SDS011;198;48.752;9.180;2022-08-04T12:21:53;1.50;;;1.40;;
422;SDS011;198;48.752;9.180;2022-08-04T12:24:25;2.83;;;2.00;;
422;SDS011;198;48.752;9.180;2022-08-04T12:26:56;3.35;;;1.95;;
422;SDS011;198;48.752;9.180;2022-08-04T12:29:26;2.85;;;1.88;;
422;SDS011;198;48.752;9.180;2022-08-04T12:31:59;1.50;;;1.40;;
422;SDS011;198;48.752;9.180;2022-08-04T12:34:53;1.60;;;1.50;;
422;SDS011;198;48.752;9.180;2022-08-04T12:40:12;4.80;;;1.80;;
422;SDS011;198;48.752;9.180;2022-08-04T12:42:43;1.20;;;1.10;;
422;SDS011;198;48.752;9.180;2022-08-04T12:45:13;1.35;;;1.25;;
422;SDS011;198;48.752;9.180;2022-08-04T12:47:41;2.25;;;1.35;;
422;SDS011;198;48.752;9.180;2022-08-04T12:50:07;3.20;;;1.30;;
422;SDS011;198;48.752;9.180;2022-08-04T12:52:41;2.80;;;1.70;;
422;SDS011;198;48.752;9.180;2022-08-04T12:55:09;1.60;;;1.50;;
422;SDS011;198;48.752;9.180;2022-08-04T12:57:35;2.20;;;1.20;;
422;SDS011;198;48.752;9.180;2022-08-04T13:00:02;8.68;;;1.75;;
422;SDS011;198;48.752;9.180;2022-08-04T13:02:29;3.00;;;1.40;;
422;SDS011;198;48.752;9.180;2022-08-04T13:04:57;6.68;;;1.75;;
422;SDS011;198;48.752;9.180;2022-08-04T13:07:26;3.33;;;1.33;;
422;SDS011;198;48.752;9.180;2022-08-04T13:09:59;3.00;;;1.30;;
422;SDS011;198;48.752;9.180;2022-08-04T13:12:29;1.70;;;1.38;;
422;SDS011;198;48.752;9.180;2022-08-04T13:14:58;1.48;;;1.38;;
422;SDS011;198;48.752;9.180;2022-08-04T13:20:34;4.72;;;1.48;;
422;SDS011;198;48.752;9.180;2022-08-04T13:25:30;1.70;;;1.60;;
422;SDS011;198;48.752;9.180;2022-08-04T13:27:58;1.42;;;1.40;;
422;SDS011;198;48.752;9.180;2022-08-04T13:30:26;8.98;;;2.20;;
422;SDS011;198;48.752;9.180;2022-08-04T13:32:55;1.77;;;1.55;;
422;SDS011;198;48.752;9.180;2022-08-04T13:35:23;2.25;;;1.50;;
422;SDS011;198;48.752;9.180;2022-08-04T13:37:50;1.40;;;1.30;;
422;SDS011;198;48.752;9.180;2022-08-04T13:40:18;1.48;;;1.38;;
422;SDS011;198;48.752;9.180;2022-08-04T13:42:47;2.67;;;1.58;;
422;SDS011;198;48.752;9.180;2022-08-04T13:45:18;1.50;;;1.40;;
422;SDS011;198;48.752;9.180;2022-08-04T13:47:45;1.55;;;1.45;;
422;SDS011;198;48.752;9.180;2022-08-04T13:50:19;1.70;;;1.60;;
422;SDS011;198;48.752;9.180;2022-08-04T13:52:55;1.98;;;1.88;;
422;SDS011;198;48.752;9.180;2022-08-04T13:55:23;2.08;;;1.52;;
422;SDS011;198;48.752;9.180;2022-08-04T13:57:54;1.33;;;1.23;;
422;SDS011;198;48.752;9.180;2022-08-04T14:00:23;1.52;;;1.23;;
422;SDS011;198;48.752;9.180;2022-08-04T14:03:03;1.70;;;1.60;;
422;SDS011;198;48.752;9.180;2022-08-04T14:05:31;1.45;;;1.35;;
422;SDS011;198;48.752;9.180;2022-08-04T14:07:57;1.65;;;1.55;;
422;SDS011;198;48.752;9.180;2022-08-04T14:10:31;1.42;;;1.33;;
422;SDS011;198;48.752;9.180;2022-08-04T14:12:57;1.30;;;1.20;;
422;SDS011;198;48.752;9.180;2022-08-04T14:15:30;2.03;;;1.52;;
422;SDS011;198;48.752;9.180;2022-08-04T14:28:39;1.48;;;1.40;;
422;SDS011;198;48.752;9.180;2022-08-04T14:31:12;5.18;;;1.60;;
422;SDS011;198;48.752;9.180;2022-08-04T14:33:40;3.88;;;1.63;;
422;SDS011;198;48.752;9.180;2022-08-04T14:36:07;1.50;;;1.40;;
422;SDS011;198;48.752;9.180;2022-08-04T14:38:43;1.40;;;1.30;;
422;SDS011;198;48.752;9.180;2022-08-04T14:41:21;2.42;;;1.50;;
422;SDS011;198;48.752;9.180;2022-08-04T14:46:22;1.40;;;1.30;;
422;SDS011;198;48.752;9.180;2022-08-04T14:49:03;1.45;;;1.35;;
422;SDS011;198;48.752;9.180;2022-08-04T14:51:37;1.45;;;1.38;;
422;SDS011;198;48.752;9.180;2022-08-04T14:54:05;2.60;;;1.48;;
422;SDS011;198;48.752;9.180;2022-08-04T14:56:33;1.83;;;1.50;;
422;SDS011;198;48.752;9.180;2022-08-04T14:59:00;2.15;;;1.30;;
422;SDS011;198;48.752;9.180;2022-08-04T15:01:28;1.40;;;1.30;;
422;SDS011;198;48.752;9.180;2022-08-04T15:03:55;1.73;;;1.63;;
422;SDS011;198;48.752;9.180;2022-08-04T15:06:25;1.20;;;1.10;;
422;SDS011;198;48.752;9.180;2022-08-04T15:08:52;2.40;;;1.48;;
422;SDS011;198;48.752;9.180;2022-08-04T15:11:19;1.63;;;1.40;;
422;SDS011;198;48.752;9.180;2022-08-04T15:13:46;1.55;;;1.50;;
422;SDS011;198;48.752;9.180;2022-08-04T15:16:11;1.50;;;1.40;;
422;SDS011;198;48.752;9.180;2022-08-04T15:18:39;2.88;;;1.48;;
422;SDS011;198;48.752;9.180;2022-08-04T15:21:05;1.58;;;1.48;;
422;SDS011;198;48.752;9.180;2022-08-04T15:23:31;2.63;;;1.60;;
422;SDS011;198;48.752;9.180;2022-08-04T15:25:59;4.13;;;1.63;;
422;SDS011;198;48.752;9.180;2022-08-04T15:28:27;4.82;;;2.15;;
422;SDS011;198;48.752;9.180;2022-08-04T15:30:54;2.22;;;1.40;;
422;SDS011;198;48.752;9.180;2022-08-04T15:33:20;2.85;;;1.70;;
422;SDS011;198;48.752;9.180;2022-08-04T15:35:52;1.70;;;1.60;;
422;SDS011;198;48.752;9.180;2022-08-04T15:38:35;1.30;;;1.20;;
422;SDS011;198;48.752;9.180;2022-08-04T15:41:13;1.55;;;1.45;;
422;SDS011;198;48.752;9.180;2022-08-04T15:49:23;1.42;;;1.30;;
422;SDS011;198;48.752;9.180;2022-08-04T15:51:59;1.40;;;1.30;;
422;SDS011;198;48.752;9.180;2022-08-04T15:54:29;1.30;;;1.20;;
422;SDS011;198;48.752;9.180;2022-08-04T15:56:55;1.25;;;1.15;;
422;SDS011;198;48.752;9.180;2022-08-04T16:05:42;2.17;;;1.80;;
422;SDS011;198;48.752;9.180;2022-08-04T16:07:51;1.83;;;1.45;;
422;SDS011;198;48.752;9.180;2022-08-04T16:13:11;1.50;;;1.27;;
422;SDS011;198;48.752;9.180;2022-08-04T16:18:18;1.80;;;1.70;;
422;SDS011;198;48.752;9.180;2022-08-04T16:20:44;1.92;;;1.67;;
422;SDS011;198;48.752;9.180;2022-08-04T16:25:43;1.40;;;1.30;;
422;SDS011;198;48.752;9.180;2022-08-04T16:28:34;7.63;;;1.60;;
422;SDS011;198;48.752;9.180;2022-08-04T16:30:58;2.25;;;2.08;;
422;SDS011;198;48.752;9.180;2022-08-04T16:33:26;3.83;;;1.67;;
422;SDS011;198;48.752;9.180;2022-08-04T16:35:54;2.92;;;1.52;;
422;SDS011;198;48.752;9.180;2022-08-04T16:38:20;4.85;;;1.60;;
422;SDS011;198;48.752;9.180;2022-08-04T16:40:52;1.85;;;1.45;;
422;SDS011;198;48.752;9.180;2022-08-04T16:43:18;3.30;;;1.95;;
422;SDS011;198;48.752;9.180;2022-08-04T16:46:05;2.45;;;1.63;;
422;SDS011;198;48.752;9.180;2022-08-04T16:48:31;1.63;;;1.48;;
422;SDS011;198;48.752;9.180;2022-08-04T16:50:59;1.98;;;1.88;;
422;SDS011;198;48.752;9.180;2022-08-04T16:53:31;1.70;;;1.65;;
422;SDS011;198;48.752;9.180;2022-08-04T16:56:13;2.53;;;1.50;;
422;SDS011;198;48.752;9.180;2022-08-04T16:58:43;5.70;;;1.42;;
422;SDS011;198;48.752;9.180;2022-08-04T17:01:13;1.20;;;1.10;;
422;SDS011;198;48.752;9.180;2022-08-04T17:03:50;2.00;;;1.58;;
422;SDS011;198;48.752;9.180;2022-08-04T17:06:16;1.40;;;1.30;;
422;SDS011;198;48.752;9.180;2022-08-04T17:08:43;2.50;;;1.93;;
422;SDS011;198;48.752;9.180;2022-08-04T17:11:09;4.37;;;2.00;;
422;SDS011;198;48.752;9.180;2022-08-04T17:13:37;2.27;;;1.93;;
422;SDS011;198;48.752;9.180;2022-08-04T17:16:08;2.83;;;2.27;;
422;SDS011;198;48.752;9.180;2022-08-04T17:18:36;2.00;;;1.90;;
422;SDS011;198;48.752;9.180;2022-08-04T17:21:05;3.17;;;2.50;;
422;SDS011;198;48.752;9.180;2022-08-04T17:23:37;2.70;;;1.97;;
422;SDS011;198;48.752;9.180;2022-08-04T17:26:08;2.43;;;1.93;;
422;SDS011;198;48.752;9.180;2022-08-04T17:28:36;2.30;;;2.10;;
422;SDS011;198;48.752;9.180;2022-08-04T17:31:03;2.67;;;1.93;;
422;SDS011;198;48.752;9.180;2022-08-04T17:33:30;7.17;;;2.30;;
422;SDS011;198;48.752;9.180;2022-08-04T17:35:59;5.10;;;1.87;;
422;SDS011;198;48.752;9.180;2022-08-04T17:38:33;2.63;;;2.30;;
422;SDS011;198;48.752;9.180;2022-08-04T17:41:03;4.83;;;2.10;;
422;SDS011;198;48.752;9.180;2022-08-04T17:43:38;3.50;;;2.10;;
422;SDS011;198;48.752;9.180;2022-08-04T17:46:27;2.27;;;2.07;;
422;SDS011;198;48.752;9.180;2022-08-04T17:51:36;2.30;;;2.10;;
422;SDS011;198;48.752;9.180;2022-08-04T17:54:05;11.93;;;2.80;;
422;SDS011;198;48.752;9.180;2022-08-04T17:56:33;2.17;;;2.00;;
422;SDS011;198;48.752;9.180;2022-08-04T18:01:41;2.20;;;1.90;;
422;SDS011;198;48.752;9.180;2022-08-04T18:07:09;4.00;;;2.00;;
422;SDS011;198;48.752;9.180;2022-08-04T18:12:05;2.60;;;1.87;;
422;SDS011;198;48.752;9.180;2022-08-04T18:14:46;3.83;;;2.57;;
422;SDS011;198;48.752;9.180;2022-08-04T18:17:14;7.60;;;3.03;;
422;SDS011;198;48.752;9.180;2022-08-04T18:19:56;2.23;;;1.83;;
422;SDS011;198;48.752;9.180;2022-08-04T18:22:23;4.37;;;2.30;;
422;SDS011;198;48.752;9.180;2022-08-04T18:24:48;2.37;;;2.20;;
422;SDS011;198;48.752;9.180;2022-08-04T18:27:15;5.90;;;2.90;;
422;SDS011;198;48.752;9.180;2022-08-04T18:29:42;3.50;;;2.00;;
422;SDS011;198;48.752;9.180;2022-08-04T18:32:08;2.70;;;2.00;;
422;SDS011;198;48.752;9.180;2022-08-04T18:34:34;7.37;;;1.97;;
422;SDS011;198;48.752;9.180;2022-08-04T18:37:01;2.00;;;1.90;;
422;SDS011;198;48.752;9.180;2022-08-04T18:39:26;2.57;;;2.10;;
422;SDS011;198;48.752;9.180;2022-08-04T18:41:54;2.70;;;2.30;;
422;SDS011;198;48.752;9.180;2022-08-04T18:44:20;4.33;;;2.20;;
422;SDS011;198;48.752;9.180;2022-08-04T18:46:46;3.43;;;2.53;;
422;SDS011;198;48.752;9.180;2022-08-04T18:49:12;2.93;;;2.20;;
422;SDS011;198;48.752;9.180;2022-08-04T18:51:38;5.30;;;2.33;;
422;SDS011;198;48.752;9.180;2022-08-04T18:54:04;2.40;;;2.20;;
422;SDS011;198;48.752;9.180;2022-08-04T18:56:30;7.47;;;2.33;;
422;SDS011;198;48.752;9.180;2022-08-04T18:58:57;3.30;;;2.27;;
422;SDS011;198;48.752;9.180;2022-08-04T19:01:28;6.53;;;2.53;;
422;SDS011;198;48.752;9.180;2022-08-04T19:03:53;2.57;;;2.40;;
422;SDS011;198;48.752;9.180;2022-08-04T19:06:19;2.90;;;2.30;;
422;SDS011;198;48.752;9.180;2022-08-04T19:08:45;2.80;;;1.93;;
422;SDS011;198;48.752;9.180;2022-08-04T19:11:10;3.50;;;2.63;;
422;SDS011;198;48.752;9.180;2022-08-04T19:13:37;2.53;;;1.93;;
422;SDS011;198;48.752;9.180;2022-08-04T19:16:03;5.17;;;2.30;;
422;SDS011;198;48.752;9.180;2022-08-04T19:18:28;2.87;;;2.00;;
422;SDS011;198;48.752;9.180;2022-08-04T19:20:56;4.30;;;2.50;;
422;SDS011;198;48.752;9.180;2022-08-04T19:23:22;3.20;;;2.40;;
422;SDS011;198;48.752;9.180;2022-08-04T19:25:47;3.53;;;2.30;;
422;SDS011;198;48.752;9.180;2022-08-04T19:28:14;2.97;;;2.20;;
422;SDS011;198;48.752;9.180;2022-08-04T19:30:40;3.70;;;2.40;;
422;SDS011;198;48.752;9.180;2022-08-04T19:33:06;4.37;;;2.60;;
422;SDS011;198;48.752;9.180;2022-08-04T19:35:31;2.80;;;2.20;;
422;SDS011;198;48.752;9.180;2022-08-04T19:37:57;2.43;;;2.20;;
422;SDS011;198;48.752;9.180;2022-08-04T19:40:22;2.93;;;2.40;;
422;SDS011;198;48.752;9.180;2022-08-04T19:42:49;2.87;;;1.80;;
422;SDS011;198;48.752;9.180;2022-08-04T19:45:15;6.50;;;2.80;;
422;SDS011;198;48.752;9.180;2022-08-04T19:47:41;2.27;;;2.00;;
422;SDS011;198;48.752;9.180;2022-08-04T19:50:07;2.43;;;2.23;;
422;SDS011;198;48.752;9.180;2022-08-04T19:52:32;3.80;;;2.70;;
422;SDS011;198;48.752;9.180;2022-08-04T19:54:58;3.37;;;2.27;;
422;SDS011;198;48.752;9.180;2022-08-04T19:57:23;7.23;;;2.83;;
422;SDS011;198;48.752;9.180;2022-08-04T19:59:55;4.43;;;2.77;;
422;SDS011;198;48.752;9.180;2022-08-04T20:02:21;4.07;;;2.70;;
422;SDS011;198;48.752;9.180;2022-08-04T20:04:46;7.17;;;3.00;;
422;SDS011;198;48.752;9.180;2022-08-04T20:07:11;2.70;;;2.20;;